Ana Sayfa
METAR-TAF:

METAR-TAF

Havaalanları :

Cape Lisburne, Alaska, Amerika Birleşik Devletleri

Enlem: 68-53N, Boylam: 166-06W, yükseklik: 4 m

Güncel hava durumu gözlemi

Rapor saat 03:55 UTC de 1 saat ve 8 dakika önce yapıldı.
Rüzgar güney/güneybatıdan 27 kt ve 36 kt'a kadar ani rüzgarlar
Sıcaklık -5°C
Nem 73%
Basınç 1017 hPa
Görüş mesafesi: 16.1 km
Açık gökyüzü

METAR: PALU 010355Z AUTO 20027G36KT 10SM CLR M05/M09 A3003 RMK AO2 PK WND 20038/0320 SLP169 T10491086

Saat: 21:03 (05:03 UTC)


TAF: eksik

4.000'den fazla havaalanı için hava durumu gözlemleri ve tahminleri (METAR ve TAF raporları).

Kullanılabilir istasyonlar harita üzerinde sarı ve kırmızı noktalarla gösterilir.

İstasyonun adını görmek için fareyi noktanın üzerinde gezdirin.

Sonrasında hava gözlem ve tahminlerini görmek için tıklayın.

Haritayı değiştirmek için: yaklaştırmak için siyah artı işaretli yeşil düğmeye ve uzaklaştırmak için de eksi işaretli düğmeye hızla tıklayın; bitişik haritalar için yeşil okları kullanın.


METAR-TAF: